sensor_id;sensor_type;location;lat;lon;timestamp;temperature;humidity
3921;DHT22;1975;49.356;6.816;2022-07-22T00:00:27;24.60;93.10
3921;DHT22;1975;49.356;6.816;2022-07-22T00:02:52;24.60;93.10
3921;DHT22;1975;49.356;6.816;2022-07-22T00:05:18;24.60;93.00
3921;DHT22;1975;49.356;6.816;2022-07-22T00:07:43;24.60;93.10
3921;DHT22;1975;49.356;6.816;2022-07-22T00:10:09;24.60;93.10
3921;DHT22;1975;49.356;6.816;2022-07-22T00:12:36;24.50;93.00
3921;DHT22;1975;49.356;6.816;2022-07-22T00:15:02;24.50;93.00
3921;DHT22;1975;49.356;6.816;2022-07-22T00:17:27;24.50;93.10
3921;DHT22;1975;49.356;6.816;2022-07-22T00:19:53;24.50;93.10
3921;DHT22;1975;49.356;6.816;2022-07-22T00:22:18;24.50;93.10
3921;DHT22;1975;49.356;6.816;2022-07-22T00:24:44;24.50;93.00
3921;DHT22;1975;49.356;6.816;2022-07-22T00:27:09;24.50;93.00
3921;DHT22;1975;49.356;6.816;2022-07-22T00:29:35;24.50;93.00
3921;DHT22;1975;49.356;6.816;2022-07-22T00:32:00;24.40;93.00
3921;DHT22;1975;49.356;6.816;2022-07-22T00:34:26;24.40;93.00
3921;DHT22;1975;49.356;6.816;2022-07-22T00:36:51;24.40;93.00
3921;DHT22;1975;49.356;6.816;2022-07-22T00:39:16;24.40;93.00
3921;DHT22;1975;49.356;6.816;2022-07-22T00:41:42;24.40;93.00
3921;DHT22;1975;49.356;6.816;2022-07-22T00:44:08;24.30;93.00
3921;DHT22;1975;49.356;6.816;2022-07-22T00:46:34;24.30;93.00
3921;DHT22;1975;49.356;6.816;2022-07-22T00:49:00;24.30;93.00
3921;DHT22;1975;49.356;6.816;2022-07-22T00:51:26;24.30;93.00
3921;DHT22;1975;49.356;6.816;2022-07-22T00:53:52;24.30;93.00
3921;DHT22;1975;49.356;6.816;2022-07-22T00:56:18;24.30;93.00
3921;DHT22;1975;49.356;6.816;2022-07-22T00:58:46;24.30;93.10
3921;DHT22;1975;49.356;6.816;2022-07-22T01:01:12;24.30;93.00
3921;DHT22;1975;49.356;6.816;2022-07-22T01:03:38;24.30;93.00
3921;DHT22;1975;49.356;6.816;2022-07-22T01:06:04;24.20;93.00
3921;DHT22;1975;49.356;6.816;2022-07-22T01:08:31;24.20;92.90
3921;DHT22;1975;49.356;6.816;2022-07-22T01:11:17;24.20;92.90
3921;DHT22;1975;49.356;6.816;2022-07-22T01:13:43;24.20;93.00
3921;DHT22;1975;49.356;6.816;2022-07-22T01:16:09;24.20;92.90
3921;DHT22;1975;49.356;6.816;2022-07-22T01:18:35;24.20;92.90
3921;DHT22;1975;49.356;6.816;2022-07-22T01:21:02;24.20;92.90
3921;DHT22;1975;49.356;6.816;2022-07-22T01:23:27;24.10;92.90
3921;DHT22;1975;49.356;6.816;2022-07-22T01:25:53;24.10;92.90
3921;DHT22;1975;49.356;6.816;2022-07-22T01:28:18;24.10;92.90
3921;DHT22;1975;49.356;6.816;2022-07-22T01:30:44;24.10;93.00
3921;DHT22;1975;49.356;6.816;2022-07-22T01:33:09;24.10;92.90
3921;DHT22;1975;49.356;6.816;2022-07-22T01:35:35;24.10;93.00
3921;DHT22;1975;49.356;6.816;2022-07-22T01:38:00;24.00;92.90
3921;DHT22;1975;49.356;6.816;2022-07-22T01:40:26;24.00;93.30
3921;DHT22;1975;49.356;6.816;2022-07-22T01:42:51;24.00;92.90
3921;DHT22;1975;49.356;6.816;2022-07-22T01:45:17;24.00;92.90
3921;DHT22;1975;49.356;6.816;2022-07-22T01:47:42;24.00;92.90
3921;DHT22;1975;49.356;6.816;2022-07-22T01:50:08;24.00;92.90
3921;DHT22;1975;49.356;6.816;2022-07-22T01:52:34;23.90;92.90
3921;DHT22;1975;49.356;6.816;2022-07-22T01:55:00;23.90;92.90
3921;DHT22;1975;49.356;6.816;2022-07-22T01:57:25;23.90;92.90
3921;DHT22;1975;49.356;6.816;2022-07-22T01:59:51;23.90;92.90
3921;DHT22;1975;49.356;6.816;2022-07-22T02:02:16;23.90;92.80
3921;DHT22;1975;49.356;6.816;2022-07-22T02:04:41;23.90;92.80
3921;DHT22;1975;49.356;6.816;2022-07-22T02:07:07;23.90;92.90
3921;DHT22;1975;49.356;6.816;2022-07-22T02:09:32;23.90;92.80
3921;DHT22;1975;49.356;6.816;2022-07-22T02:11:58;23.80;92.80
3921;DHT22;1975;49.356;6.816;2022-07-22T02:14:23;23.80;92.80
3921;DHT22;1975;49.356;6.816;2022-07-22T02:16:49;23.80;92.80
3921;DHT22;1975;49.356;6.816;2022-07-22T02:19:14;23.80;92.80
3921;DHT22;1975;49.356;6.816;2022-07-22T02:21:40;23.80;92.80
3921;DHT22;1975;49.356;6.816;2022-07-22T02:24:05;23.80;92.80
3921;DHT22;1975;49.356;6.816;2022-07-22T02:26:31;23.70;92.80
3921;DHT22;1975;49.356;6.816;2022-07-22T02:28:57;23.70;92.70
3921;DHT22;1975;49.356;6.816;2022-07-22T02:31:23;23.70;92.70
3921;DHT22;1975;49.356;6.816;2022-07-22T02:33:48;23.70;92.70
3921;DHT22;1975;49.356;6.816;2022-07-22T02:36:14;23.70;92.80
3921;DHT22;1975;49.356;6.816;2022-07-22T02:38:39;23.70;92.70
3921;DHT22;1975;49.356;6.816;2022-07-22T02:41:05;23.60;92.80
3921;DHT22;1975;49.356;6.816;2022-07-22T02:43:30;23.60;92.80
3921;DHT22;1975;49.356;6.816;2022-07-22T02:45:56;23.60;92.80
3921;DHT22;1975;49.356;6.816;2022-07-22T02:48:21;23.60;92.80
3921;DHT22;1975;49.356;6.816;2022-07-22T02:50:47;23.60;92.80
3921;DHT22;1975;49.356;6.816;2022-07-22T02:53:13;23.60;92.80
3921;DHT22;1975;49.356;6.816;2022-07-22T02:55:38;23.60;92.90
3921;DHT22;1975;49.356;6.816;2022-07-22T02:58:08;23.50;92.80
3921;DHT22;1975;49.356;6.816;2022-07-22T03:00:34;23.50;92.90
3921;DHT22;1975;49.356;6.816;2022-07-22T03:02:59;23.50;92.90
3921;DHT22;1975;49.356;6.816;2022-07-22T03:05:25;23.50;92.90
3921;DHT22;1975;49.356;6.816;2022-07-22T03:07:50;23.50;92.90
3921;DHT22;1975;49.356;6.816;2022-07-22T03:10:16;23.50;92.90
3921;DHT22;1975;49.356;6.816;2022-07-22T03:12:41;23.50;92.90
3921;DHT22;1975;49.356;6.816;2022-07-22T03:15:06;23.50;92.90
3921;DHT22;1975;49.356;6.816;2022-07-22T03:17:35;23.40;92.80
3921;DHT22;1975;49.356;6.816;2022-07-22T03:20:02;23.40;92.80
3921;DHT22;1975;49.356;6.816;2022-07-22T03:22:29;23.40;92.80
3921;DHT22;1975;49.356;6.816;2022-07-22T03:24:54;23.40;92.80
3921;DHT22;1975;49.356;6.816;2022-07-22T03:27:20;23.40;92.80
3921;DHT22;1975;49.356;6.816;2022-07-22T03:29:45;23.40;92.80
3921;DHT22;1975;49.356;6.816;2022-07-22T03:32:11;23.40;92.80
3921;DHT22;1975;49.356;6.816;2022-07-22T03:34:36;23.30;92.80
3921;DHT22;1975;49.356;6.816;2022-07-22T03:37:02;23.30;92.80
3921;DHT22;1975;49.356;6.816;2022-07-22T03:39:27;23.30;92.80
3921;DHT22;1975;49.356;6.816;2022-07-22T03:41:53;23.30;92.80
3921;DHT22;1975;49.356;6.816;2022-07-22T03:44:18;23.30;92.80
3921;DHT22;1975;49.356;6.816;2022-07-22T03:46:44;23.20;92.80
3921;DHT22;1975;49.356;6.816;2022-07-22T03:49:09;23.20;92.80
3921;DHT22;1975;49.356;6.816;2022-07-22T03:51:35;23.20;92.80
3921;DHT22;1975;49.356;6.816;2022-07-22T03:54:00;23.20;92.90
3921;DHT22;1975;49.356;6.816;2022-07-22T03:56:25;23.20;92.90
3921;DHT22;1975;49.356;6.816;2022-07-22T03:58:51;23.20;92.90
3921;DHT22;1975;49.356;6.816;2022-07-22T04:01:16;23.20;92.90
3921;DHT22;1975;49.356;6.816;2022-07-22T04:03:42;23.20;92.90
3921;DHT22;1975;49.356;6.816;2022-07-22T04:06:08;23.10;92.90
3921;DHT22;1975;49.356;6.816;2022-07-22T04:08:33;23.10;92.90
3921;DHT22;1975;49.356;6.816;2022-07-22T04:10:59;23.10;92.90
3921;DHT22;1975;49.356;6.816;2022-07-22T04:13:24;23.10;92.80
3921;DHT22;1975;49.356;6.816;2022-07-22T04:15:50;23.10;92.80
3921;DHT22;1975;49.356;6.816;2022-07-22T04:18:15;23.10;92.80
3921;DHT22;1975;49.356;6.816;2022-07-22T04:20:42;23.10;92.80
3921;DHT22;1975;49.356;6.816;2022-07-22T04:23:08;23.10;92.90
3921;DHT22;1975;49.356;6.816;2022-07-22T04:25:33;23.00;92.80
3921;DHT22;1975;49.356;6.816;2022-07-22T04:27:59;23.00;92.80
3921;DHT22;1975;49.356;6.816;2022-07-22T04:30:24;23.00;92.80
3921;DHT22;1975;49.356;6.816;2022-07-22T04:32:50;23.00;92.80
3921;DHT22;1975;49.356;6.816;2022-07-22T04:35:15;23.00;92.80
3921;DHT22;1975;49.356;6.816;2022-07-22T04:37:41;23.00;92.80
3921;DHT22;1975;49.356;6.816;2022-07-22T04:40:06;23.00;92.80
3921;DHT22;1975;49.356;6.816;2022-07-22T04:42:32;23.00;92.80
3921;DHT22;1975;49.356;6.816;2022-07-22T04:44:57;23.00;92.90
3921;DHT22;1975;49.356;6.816;2022-07-22T04:47:23;23.00;92.80
3921;DHT22;1975;49.356;6.816;2022-07-22T04:49:48;23.00;92.90
3921;DHT22;1975;49.356;6.816;2022-07-22T04:52:14;23.00;92.90
3921;DHT22;1975;49.356;6.816;2022-07-22T04:54:39;22.90;92.90
3921;DHT22;1975;49.356;6.816;2022-07-22T04:57:05;22.90;92.90
3921;DHT22;1975;49.356;6.816;2022-07-22T04:59:30;22.90;92.90
3921;DHT22;1975;49.356;6.816;2022-07-22T05:01:56;22.90;92.90
3921;DHT22;1975;49.356;6.816;2022-07-22T05:04:21;22.90;92.90
3921;DHT22;1975;49.356;6.816;2022-07-22T05:06:47;22.90;92.90
3921;DHT22;1975;49.356;6.816;2022-07-22T05:09:12;22.90;92.90
3921;DHT22;1975;49.356;6.816;2022-07-22T05:11:38;22.90;93.00
3921;DHT22;1975;49.356;6.816;2022-07-22T05:14:03;22.90;93.00
3921;DHT22;1975;49.356;6.816;2022-07-22T05:16:29;22.90;93.00
3921;DHT22;1975;49.356;6.816;2022-07-22T05:18:54;22.90;93.00
3921;DHT22;1975;49.356;6.816;2022-07-22T05:21:19;22.90;93.00
3921;DHT22;1975;49.356;6.816;2022-07-22T05:23:45;22.90;93.10
3921;DHT22;1975;49.356;6.816;2022-07-22T05:26:10;22.90;93.10
3921;DHT22;1975;49.356;6.816;2022-07-22T05:28:36;22.90;93.20
3921;DHT22;1975;49.356;6.816;2022-07-22T05:31:01;22.90;93.20
3921;DHT22;1975;49.356;6.816;2022-07-22T05:33:27;22.90;93.30
3921;DHT22;1975;49.356;6.816;2022-07-22T05:35:52;22.90;93.30
3921;DHT22;1975;49.356;6.816;2022-07-22T05:38:18;22.90;93.30
3921;DHT22;1975;49.356;6.816;2022-07-22T05:40:43;22.90;93.40
3921;DHT22;1975;49.356;6.816;2022-07-22T05:43:09;22.90;93.50
3921;DHT22;1975;49.356;6.816;2022-07-22T05:45:34;22.90;93.60
3921;DHT22;1975;49.356;6.816;2022-07-22T05:47:59;23.00;93.70
3921;DHT22;1975;49.356;6.816;2022-07-22T05:50:26;22.90;93.80
3921;DHT22;1975;49.356;6.816;2022-07-22T05:52:52;22.90;93.90
3921;DHT22;1975;49.356;6.816;2022-07-22T05:55:17;23.00;94.00
3921;DHT22;1975;49.356;6.816;2022-07-22T05:57:43;22.90;94.10
3921;DHT22;1975;49.356;6.816;2022-07-22T06:00:08;22.90;94.10
3921;DHT22;1975;49.356;6.816;2022-07-22T06:02:34;23.00;94.20
3921;DHT22;1975;49.356;6.816;2022-07-22T06:05:00;23.00;94.30
3921;DHT22;1975;49.356;6.816;2022-07-22T06:07:28;23.00;94.30
3921;DHT22;1975;49.356;6.816;2022-07-22T06:09:54;23.00;94.50
3921;DHT22;1975;49.356;6.816;2022-07-22T06:12:19;23.00;94.60
3921;DHT22;1975;49.356;6.816;2022-07-22T06:14:45;23.00;94.60
3921;DHT22;1975;49.356;6.816;2022-07-22T06:17:11;23.00;94.80
3921;DHT22;1975;49.356;6.816;2022-07-22T06:19:37;23.00;94.80
3921;DHT22;1975;49.356;6.816;2022-07-22T06:22:02;23.00;94.90
3921;DHT22;1975;49.356;6.816;2022-07-22T06:24:28;23.00;94.90
3921;DHT22;1975;49.356;6.816;2022-07-22T06:26:53;23.00;95.00
3921;DHT22;1975;49.356;6.816;2022-07-22T06:29:19;23.00;95.10
3921;DHT22;1975;49.356;6.816;2022-07-22T06:31:44;23.00;95.10
3921;DHT22;1975;49.356;6.816;2022-07-22T06:34:10;23.00;95.10
3921;DHT22;1975;49.356;6.816;2022-07-22T06:36:35;23.00;95.10
3921;DHT22;1975;49.356;6.816;2022-07-22T06:39:01;23.00;95.20
3921;DHT22;1975;49.356;6.816;2022-07-22T06:41:26;23.00;95.30
3921;DHT22;1975;49.356;6.816;2022-07-22T06:43:52;23.00;95.40
3921;DHT22;1975;49.356;6.816;2022-07-22T06:46:18;23.00;95.50
3921;DHT22;1975;49.356;6.816;2022-07-22T06:48:43;23.10;95.60
3921;DHT22;1975;49.356;6.816;2022-07-22T06:51:09;23.10;95.80
3921;DHT22;1975;49.356;6.816;2022-07-22T06:53:34;23.10;95.80
3921;DHT22;1975;49.356;6.816;2022-07-22T06:56:00;23.10;95.90
3921;DHT22;1975;49.356;6.816;2022-07-22T06:58:26;23.10;96.00
3921;DHT22;1975;49.356;6.816;2022-07-22T07:00:51;23.10;96.00
3921;DHT22;1975;49.356;6.816;2022-07-22T07:03:17;23.10;96.10
3921;DHT22;1975;49.356;6.816;2022-07-22T07:05:42;23.10;96.20
3921;DHT22;1975;49.356;6.816;2022-07-22T07:08:08;23.10;96.30
3921;DHT22;1975;49.356;6.816;2022-07-22T07:10:33;23.10;96.20
3921;DHT22;1975;49.356;6.816;2022-07-22T07:12:59;23.10;96.30
3921;DHT22;1975;49.356;6.816;2022-07-22T07:15:25;23.10;96.30
3921;DHT22;1975;49.356;6.816;2022-07-22T07:17:51;23.10;96.40
3921;DHT22;1975;49.356;6.816;2022-07-22T07:20:17;23.20;96.30
3921;DHT22;1975;49.356;6.816;2022-07-22T07:22:43;23.20;96.40
3921;DHT22;1975;49.356;6.816;2022-07-22T07:25:08;23.20;96.40
3921;DHT22;1975;49.356;6.816;2022-07-22T07:27:34;23.10;96.40
3921;DHT22;1975;49.356;6.816;2022-07-22T07:30:00;23.20;96.50
3921;DHT22;1975;49.356;6.816;2022-07-22T07:32:25;23.20;96.50
3921;DHT22;1975;49.356;6.816;2022-07-22T07:34:51;23.20;96.60
3921;DHT22;1975;49.356;6.816;2022-07-22T07:37:16;23.20;96.50
3921;DHT22;1975;49.356;6.816;2022-07-22T07:39:42;23.20;96.50
3921;DHT22;1975;49.356;6.816;2022-07-22T07:42:07;23.20;96.60
3921;DHT22;1975;49.356;6.816;2022-07-22T07:44:33;23.20;96.50
3921;DHT22;1975;49.356;6.816;2022-07-22T07:46:58;23.20;96.60
3921;DHT22;1975;49.356;6.816;2022-07-22T07:49:24;23.30;96.60
3921;DHT22;1975;49.356;6.816;2022-07-22T07:51:49;23.30;96.70
3921;DHT22;1975;49.356;6.816;2022-07-22T07:54:15;23.30;96.60
3921;DHT22;1975;49.356;6.816;2022-07-22T07:56:40;23.30;96.60
3921;DHT22;1975;49.356;6.816;2022-07-22T07:59:06;23.30;96.60
3921;DHT22;1975;49.356;6.816;2022-07-22T08:01:31;23.40;96.90
3921;DHT22;1975;49.356;6.816;2022-07-22T08:03:57;23.40;96.70
3921;DHT22;1975;49.356;6.816;2022-07-22T08:06:22;23.40;96.80
3921;DHT22;1975;49.356;6.816;2022-07-22T08:08:48;23.40;96.80
3921;DHT22;1975;49.356;6.816;2022-07-22T08:11:13;23.40;96.80
3921;DHT22;1975;49.356;6.816;2022-07-22T08:13:39;23.40;97.00
3921;DHT22;1975;49.356;6.816;2022-07-22T08:16:04;23.40;97.00
3921;DHT22;1975;49.356;6.816;2022-07-22T08:18:30;23.40;96.90
3921;DHT22;1975;49.356;6.816;2022-07-22T08:20:56;23.40;96.90
3921;DHT22;1975;49.356;6.816;2022-07-22T08:23:23;23.50;97.00
3921;DHT22;1975;49.356;6.816;2022-07-22T08:25:48;23.50;97.00
3921;DHT22;1975;49.356;6.816;2022-07-22T08:28:14;23.50;96.90
3921;DHT22;1975;49.356;6.816;2022-07-22T08:30:39;23.60;97.10
3921;DHT22;1975;49.356;6.816;2022-07-22T08:33:05;23.60;97.00
3921;DHT22;1975;49.356;6.816;2022-07-22T08:35:31;23.60;96.90
3921;DHT22;1975;49.356;6.816;2022-07-22T08:37:56;23.60;97.00
3921;DHT22;1975;49.356;6.816;2022-07-22T08:40:22;23.70;97.00
3921;DHT22;1975;49.356;6.816;2022-07-22T08:42:48;23.70;97.10
3921;DHT22;1975;49.356;6.816;2022-07-22T08:45:15;23.70;97.00
3921;DHT22;1975;49.356;6.816;2022-07-22T08:47:43;23.70;97.00
3921;DHT22;1975;49.356;6.816;2022-07-22T08:50:08;23.70;97.00
3921;DHT22;1975;49.356;6.816;2022-07-22T08:52:34;23.80;97.00
3921;DHT22;1975;49.356;6.816;2022-07-22T08:55:01;23.80;97.10
3921;DHT22;1975;49.356;6.816;2022-07-22T08:57:27;23.80;97.00
3921;DHT22;1975;49.356;6.816;2022-07-22T08:59:53;23.90;97.00
3921;DHT22;1975;49.356;6.816;2022-07-22T09:02:19;23.90;97.00
3921;DHT22;1975;49.356;6.816;2022-07-22T09:04:59;23.90;97.00
3921;DHT22;1975;49.356;6.816;2022-07-22T09:09:53;24.00;97.00
3921;DHT22;1975;49.356;6.816;2022-07-22T09:12:19;24.00;97.00
3921;DHT22;1975;49.356;6.816;2022-07-22T09:17:30;24.00;97.10
3921;DHT22;1975;49.356;6.816;2022-07-22T09:19:59;24.00;97.10
3921;DHT22;1975;49.356;6.816;2022-07-22T09:22:38;24.00;97.20
3921;DHT22;1975;49.356;6.816;2022-07-22T09:27:49;24.00;97.20
3921;DHT22;1975;49.356;6.816;2022-07-22T09:30:15;24.10;97.20
3921;DHT22;1975;49.356;6.816;2022-07-22T09:32:41;24.10;97.10
3921;DHT22;1975;49.356;6.816;2022-07-22T09:35:07;24.10;97.10
3921;DHT22;1975;49.356;6.816;2022-07-22T09:37:33;24.10;97.10
3921;DHT22;1975;49.356;6.816;2022-07-22T09:40:11;24.10;97.10
3921;DHT22;1975;49.356;6.816;2022-07-22T09:42:44;24.20;97.10
3921;DHT22;1975;49.356;6.816;2022-07-22T09:45:10;24.20;97.10
3921;DHT22;1975;49.356;6.816;2022-07-22T09:47:35;24.20;97.10
3921;DHT22;1975;49.356;6.816;2022-07-22T09:50:01;24.20;97.10
3921;DHT22;1975;49.356;6.816;2022-07-22T09:52:26;24.20;97.00
3921;DHT22;1975;49.356;6.816;2022-07-22T09:54:52;24.20;96.90
3921;DHT22;1975;49.356;6.816;2022-07-22T09:57:17;24.20;97.00
3921;DHT22;1975;49.356;6.816;2022-07-22T09:59:44;24.20;97.00
3921;DHT22;1975;49.356;6.816;2022-07-22T10:02:09;24.30;97.10
3921;DHT22;1975;49.356;6.816;2022-07-22T10:04:35;24.30;97.10
3921;DHT22;1975;49.356;6.816;2022-07-22T10:07:02;24.30;97.10
3921;DHT22;1975;49.356;6.816;2022-07-22T10:09:27;24.30;97.00
3921;DHT22;1975;49.356;6.816;2022-07-22T10:11:53;24.30;97.10
3921;DHT22;1975;49.356;6.816;2022-07-22T10:14:19;24.30;97.00
3921;DHT22;1975;49.356;6.816;2022-07-22T10:16:45;24.30;97.10
3921;DHT22;1975;49.356;6.816;2022-07-22T10:19:11;24.40;97.10
3921;DHT22;1975;49.356;6.816;2022-07-22T10:21:36;24.40;97.10
3921;DHT22;1975;49.356;6.816;2022-07-22T10:24:06;24.40;97.20
3921;DHT22;1975;49.356;6.816;2022-07-22T10:26:52;24.40;97.20
3921;DHT22;1975;49.356;6.816;2022-07-22T10:29:24;24.40;97.20
3921;DHT22;1975;49.356;6.816;2022-07-22T10:31:50;24.50;97.20
3921;DHT22;1975;49.356;6.816;2022-07-22T10:34:16;24.50;97.30
3921;DHT22;1975;49.356;6.816;2022-07-22T10:36:41;24.50;97.40
3921;DHT22;1975;49.356;6.816;2022-07-22T10:39:08;24.50;97.30
3921;DHT22;1975;49.356;6.816;2022-07-22T10:41:36;24.50;97.90
3921;DHT22;1975;49.356;6.816;2022-07-22T10:44:02;24.50;97.50
3921;DHT22;1975;49.356;6.816;2022-07-22T10:49:11;24.60;97.60
3921;DHT22;1975;49.356;6.816;2022-07-22T10:51:40;24.80;97.30
3921;DHT22;1975;49.356;6.816;2022-07-22T10:54:25;24.90;97.60
3921;DHT22;1975;49.356;6.816;2022-07-22T10:56:51;24.90;97.20
3921;DHT22;1975;49.356;6.816;2022-07-22T10:59:17;24.90;96.90
3921;DHT22;1975;49.356;6.816;2022-07-22T11:01:46;24.90;96.60
3921;DHT22;1975;49.356;6.816;2022-07-22T11:04:13;24.90;96.70
3921;DHT22;1975;49.356;6.816;2022-07-22T11:06:39;24.90;96.30
3921;DHT22;1975;49.356;6.816;2022-07-22T11:09:06;24.80;96.30
3921;DHT22;1975;49.356;6.816;2022-07-22T11:14:01;25.00;97.10
3921;DHT22;1975;49.356;6.816;2022-07-22T11:16:27;25.30;97.20
3921;DHT22;1975;49.356;6.816;2022-07-22T11:18:54;25.40;96.80
3921;DHT22;1975;49.356;6.816;2022-07-22T11:21:21;25.40;96.20
3921;DHT22;1975;49.356;6.816;2022-07-22T11:23:48;25.40;95.90
3921;DHT22;1975;49.356;6.816;2022-07-22T11:26:15;25.30;96.10
3921;DHT22;1975;49.356;6.816;2022-07-22T11:28:44;25.30;96.00
3921;DHT22;1975;49.356;6.816;2022-07-22T11:31:12;25.60;96.20
3921;DHT22;1975;49.356;6.816;2022-07-22T11:33:38;25.60;96.00
3921;DHT22;1975;49.356;6.816;2022-07-22T11:36:08;25.60;96.30
3921;DHT22;1975;49.356;6.816;2022-07-22T11:38:43;25.70;96.10
3921;DHT22;1975;49.356;6.816;2022-07-22T11:41:09;25.70;96.10
3921;DHT22;1975;49.356;6.816;2022-07-22T11:43:38;25.70;95.30
3921;DHT22;1975;49.356;6.816;2022-07-22T11:46:04;25.70;95.70
3921;DHT22;1975;49.356;6.816;2022-07-22T11:48:29;25.80;95.90
3921;DHT22;1975;49.356;6.816;2022-07-22T11:50:59;25.80;96.00
3921;DHT22;1975;49.356;6.816;2022-07-22T11:53:24;25.90;95.90
3921;DHT22;1975;49.356;6.816;2022-07-22T11:55:50;25.80;95.50
3921;DHT22;1975;49.356;6.816;2022-07-22T11:58:15;25.80;95.10
3921;DHT22;1975;49.356;6.816;2022-07-22T12:00:41;25.80;95.00
3921;DHT22;1975;49.356;6.816;2022-07-22T12:03:07;25.70;95.60
3921;DHT22;1975;49.356;6.816;2022-07-22T12:05:33;25.80;94.60
3921;DHT22;1975;49.356;6.816;2022-07-22T12:07:59;25.80;94.70
3921;DHT22;1975;49.356;6.816;2022-07-22T12:10:25;25.90;94.70
3921;DHT22;1975;49.356;6.816;2022-07-22T12:12:51;25.90;94.90
3921;DHT22;1975;49.356;6.816;2022-07-22T12:15:16;26.00;94.20
3921;DHT22;1975;49.356;6.816;2022-07-22T12:17:42;26.10;93.80
3921;DHT22;1975;49.356;6.816;2022-07-22T12:20:11;26.00;93.70
3921;DHT22;1975;49.356;6.816;2022-07-22T12:22:44;25.90;93.90
3921;DHT22;1975;49.356;6.816;2022-07-22T12:25:10;25.90;93.70
3921;DHT22;1975;49.356;6.816;2022-07-22T12:27:35;25.90;93.50
3921;DHT22;1975;49.356;6.816;2022-07-22T12:30:01;26.10;93.60
3921;DHT22;1975;49.356;6.816;2022-07-22T12:32:36;26.00;93.10
3921;DHT22;1975;49.356;6.816;2022-07-22T12:35:02;26.00;93.10
3921;DHT22;1975;49.356;6.816;2022-07-22T12:37:30;26.10;93.40
3921;DHT22;1975;49.356;6.816;2022-07-22T12:40:04;26.40;93.50
3921;DHT22;1975;49.356;6.816;2022-07-22T12:42:33;26.40;93.00
3921;DHT22;1975;49.356;6.816;2022-07-22T12:45:01;26.40;93.60
3921;DHT22;1975;49.356;6.816;2022-07-22T12:52:52;26.50;93.30
3921;DHT22;1975;49.356;6.816;2022-07-22T12:55:18;26.80;93.00
3921;DHT22;1975;49.356;6.816;2022-07-22T12:57:44;26.80;92.70
3921;DHT22;1975;49.356;6.816;2022-07-22T13:00:09;26.80;93.10
3921;DHT22;1975;49.356;6.816;2022-07-22T13:02:36;26.80;92.60
3921;DHT22;1975;49.356;6.816;2022-07-22T13:05:02;26.80;92.10
3921;DHT22;1975;49.356;6.816;2022-07-22T13:07:28;26.80;92.10
3921;DHT22;1975;49.356;6.816;2022-07-22T13:09:53;26.70;92.00
3921;DHT22;1975;49.356;6.816;2022-07-22T13:12:19;26.80;92.40
3921;DHT22;1975;49.356;6.816;2022-07-22T13:14:44;27.00;92.50
3921;DHT22;1975;49.356;6.816;2022-07-22T13:17:09;27.00;92.30
3921;DHT22;1975;49.356;6.816;2022-07-22T13:19:37;26.90;92.20
3921;DHT22;1975;49.356;6.816;2022-07-22T13:22:03;26.90;92.30
3921;DHT22;1975;49.356;6.816;2022-07-22T13:24:28;27.00;91.50
3921;DHT22;1975;49.356;6.816;2022-07-22T13:26:54;26.90;91.40
3921;DHT22;1975;49.356;6.816;2022-07-22T13:29:19;26.80;91.60
3921;DHT22;1975;49.356;6.816;2022-07-22T13:31:45;26.80;91.50
3921;DHT22;1975;49.356;6.816;2022-07-22T13:34:10;26.80;91.80
3921;DHT22;1975;49.356;6.816;2022-07-22T13:36:35;26.80;92.00
3921;DHT22;1975;49.356;6.816;2022-07-22T13:39:01;26.90;92.20
3921;DHT22;1975;49.356;6.816;2022-07-22T13:41:27;26.90;91.20
3921;DHT22;1975;49.356;6.816;2022-07-22T13:43:53;26.80;91.10
3921;DHT22;1975;49.356;6.816;2022-07-22T13:46:18;26.80;91.00
3921;DHT22;1975;49.356;6.816;2022-07-22T13:48:44;26.90;91.90
3921;DHT22;1975;49.356;6.816;2022-07-22T13:51:10;27.00;91.90
3921;DHT22;1975;49.356;6.816;2022-07-22T13:53:35;27.00;91.60
3921;DHT22;1975;49.356;6.816;2022-07-22T13:56:01;27.00;92.30
3921;DHT22;1975;49.356;6.816;2022-07-22T13:58:27;27.00;91.60
3921;DHT22;1975;49.356;6.816;2022-07-22T14:00:53;27.00;91.70
3921;DHT22;1975;49.356;6.816;2022-07-22T14:03:19;27.00;91.00
3921;DHT22;1975;49.356;6.816;2022-07-22T14:05:44;27.00;91.80
3921;DHT22;1975;49.356;6.816;2022-07-22T14:08:10;27.00;92.10
3921;DHT22;1975;49.356;6.816;2022-07-22T14:10:36;27.10;91.90
3921;DHT22;1975;49.356;6.816;2022-07-22T14:13:01;27.10;91.60
3921;DHT22;1975;49.356;6.816;2022-07-22T14:15:27;27.10;91.90
3921;DHT22;1975;49.356;6.816;2022-07-22T14:17:52;27.20;91.40
3921;DHT22;1975;49.356;6.816;2022-07-22T14:20:18;27.30;91.10
3921;DHT22;1975;49.356;6.816;2022-07-22T14:22:43;27.40;90.40
3921;DHT22;1975;49.356;6.816;2022-07-22T14:25:09;27.40;90.00
3921;DHT22;1975;49.356;6.816;2022-07-22T14:27:34;27.40;90.40
3921;DHT22;1975;49.356;6.816;2022-07-22T14:30:00;27.40;90.10
3921;DHT22;1975;49.356;6.816;2022-07-22T14:32:25;27.60;87.40
3921;DHT22;1975;49.356;6.816;2022-07-22T14:34:51;27.60;88.40
3921;DHT22;1975;49.356;6.816;2022-07-22T14:37:16;27.60;89.00
3921;DHT22;1975;49.356;6.816;2022-07-22T14:39:42;27.60;89.10
3921;DHT22;1975;49.356;6.816;2022-07-22T14:42:07;27.70;86.80
3921;DHT22;1975;49.356;6.816;2022-07-22T14:44:33;27.70;86.00
3921;DHT22;1975;49.356;6.816;2022-07-22T14:46:58;27.70;87.00
3921;DHT22;1975;49.356;6.816;2022-07-22T14:49:23;27.70;86.60
3921;DHT22;1975;49.356;6.816;2022-07-22T14:51:49;27.70;87.30
3921;DHT22;1975;49.356;6.816;2022-07-22T14:54:14;27.90;87.40
3921;DHT22;1975;49.356;6.816;2022-07-22T14:56:40;28.00;86.60
3921;DHT22;1975;49.356;6.816;2022-07-22T14:59:06;28.00;86.50
3921;DHT22;1975;49.356;6.816;2022-07-22T15:01:31;28.00;86.10
3921;DHT22;1975;49.356;6.816;2022-07-22T15:03:57;28.10;85.50
3921;DHT22;1975;49.356;6.816;2022-07-22T15:06:22;28.10;85.70
3921;DHT22;1975;49.356;6.816;2022-07-22T15:08:48;28.00;86.00
3921;DHT22;1975;49.356;6.816;2022-07-22T15:11:13;28.00;87.00
3921;DHT22;1975;49.356;6.816;2022-07-22T15:13:39;28.00;87.30
3921;DHT22;1975;49.356;6.816;2022-07-22T15:16:04;28.20;85.60
3921;DHT22;1975;49.356;6.816;2022-07-22T15:18:30;28.20;84.40
3921;DHT22;1975;49.356;6.816;2022-07-22T15:20:55;28.20;84.80
3921;DHT22;1975;49.356;6.816;2022-07-22T15:23:22;28.10;85.50
3921;DHT22;1975;49.356;6.816;2022-07-22T15:25:50;28.10;85.90
3921;DHT22;1975;49.356;6.816;2022-07-22T15:28:15;28.10;85.80
3921;DHT22;1975;49.356;6.816;2022-07-22T15:30:41;28.10;85.00
3921;DHT22;1975;49.356;6.816;2022-07-22T15:33:06;28.10;85.20
3921;DHT22;1975;49.356;6.816;2022-07-22T15:35:32;28.10;84.40
3921;DHT22;1975;49.356;6.816;2022-07-22T15:37:57;28.00;83.90
3921;DHT22;1975;49.356;6.816;2022-07-22T15:40:23;28.00;84.50
3921;DHT22;1975;49.356;6.816;2022-07-22T15:42:49;28.00;84.60
3921;DHT22;1975;49.356;6.816;2022-07-22T15:45:15;27.90;84.50
3921;DHT22;1975;49.356;6.816;2022-07-22T15:47:40;27.90;83.80
3921;DHT22;1975;49.356;6.816;2022-07-22T15:50:06;27.90;84.70
3921;DHT22;1975;49.356;6.816;2022-07-22T15:52:31;27.80;84.60
3921;DHT22;1975;49.356;6.816;2022-07-22T15:54:57;27.90;84.80
3921;DHT22;1975;49.356;6.816;2022-07-22T15:57:22;27.80;85.20
3921;DHT22;1975;49.356;6.816;2022-07-22T16:00:07;27.80;85.20
3921;DHT22;1975;49.356;6.816;2022-07-22T16:02:33;27.80;85.50
3921;DHT22;1975;49.356;6.816;2022-07-22T16:04:58;27.80;85.70
3921;DHT22;1975;49.356;6.816;2022-07-22T16:07:24;27.80;85.60
3921;DHT22;1975;49.356;6.816;2022-07-22T16:09:49;27.90;85.80
3921;DHT22;1975;49.356;6.816;2022-07-22T16:12:15;27.90;86.00